sensor_id;sensor_type;location;lat;lon;timestamp;P1;durP1;ratioP1;P2;durP2;ratioP2
18290;SDS011;9271;48.590;8.866;2023-04-24T00:01:28;2.27;;;1.00;;
18290;SDS011;9271;48.590;8.866;2023-04-24T00:03:56;2.03;;;1.20;;
18290;SDS011;9271;48.590;8.866;2023-04-24T00:06:25;2.07;;;1.10;;
18290;SDS011;9271;48.590;8.866;2023-04-24T00:08:58;1.30;;;0.97;;
18290;SDS011;9271;48.590;8.866;2023-04-24T00:11:25;1.40;;;0.93;;
18290;SDS011;9271;48.590;8.866;2023-04-24T00:13:51;1.53;;;1.00;;
18290;SDS011;9271;48.590;8.866;2023-04-24T00:16:18;2.37;;;1.10;;
18290;SDS011;9271;48.590;8.866;2023-04-24T00:18:45;1.33;;;1.20;;
18290;SDS011;9271;48.590;8.866;2023-04-24T00:21:12;1.20;;;1.10;;
18290;SDS011;9271;48.590;8.866;2023-04-24T00:23:41;3.03;;;1.40;;
18290;SDS011;9271;48.590;8.866;2023-04-24T00:26:08;1.67;;;1.30;;
18290;SDS011;9271;48.590;8.866;2023-04-24T00:28:35;1.43;;;1.30;;
18290;SDS011;9271;48.590;8.866;2023-04-24T00:31:02;3.13;;;1.37;;
18290;SDS011;9271;48.590;8.866;2023-04-24T00:33:28;3.03;;;1.50;;
18290;SDS011;9271;48.590;8.866;2023-04-24T00:35:55;1.80;;;1.40;;
18290;SDS011;9271;48.590;8.866;2023-04-24T00:38:22;3.13;;;1.43;;
18290;SDS011;9271;48.590;8.866;2023-04-24T00:40:50;1.67;;;1.20;;
18290;SDS011;9271;48.590;8.866;2023-04-24T00:43:16;1.67;;;1.10;;
18290;SDS011;9271;48.590;8.866;2023-04-24T00:45:43;1.07;;;1.00;;
18290;SDS011;9271;48.590;8.866;2023-04-24T00:48:10;2.53;;;1.20;;
18290;SDS011;9271;48.590;8.866;2023-04-24T00:50:37;1.37;;;0.93;;
18290;SDS011;9271;48.590;8.866;2023-04-24T00:53:05;1.10;;;1.00;;
18290;SDS011;9271;48.590;8.866;2023-04-24T00:55:31;1.03;;;1.00;;
18290;SDS011;9271;48.590;8.866;2023-04-24T00:57:59;2.30;;;1.20;;
18290;SDS011;9271;48.590;8.866;2023-04-24T01:00:26;1.83;;;1.30;;
18290;SDS011;9271;48.590;8.866;2023-04-24T01:02:53;4.97;;;1.20;;
18290;SDS011;9271;48.590;8.866;2023-04-24T01:05:20;1.50;;;1.17;;
18290;SDS011;9271;48.590;8.866;2023-04-24T01:07:47;2.60;;;1.13;;
18290;SDS011;9271;48.590;8.866;2023-04-24T01:10:14;2.53;;;1.30;;
18290;SDS011;9271;48.590;8.866;2023-04-24T01:12:42;1.40;;;1.13;;
18290;SDS011;9271;48.590;8.866;2023-04-24T01:15:11;1.00;;;1.00;;
18290;SDS011;9271;48.590;8.866;2023-04-24T01:17:37;1.20;;;1.10;;
18290;SDS011;9271;48.590;8.866;2023-04-24T01:20:04;1.27;;;1.10;;
18290;SDS011;9271;48.590;8.866;2023-04-24T01:22:33;2.03;;;1.20;;
18290;SDS011;9271;48.590;8.866;2023-04-24T01:25:00;1.30;;;1.20;;
18290;SDS011;9271;48.590;8.866;2023-04-24T01:27:27;1.37;;;1.10;;
18290;SDS011;9271;48.590;8.866;2023-04-24T01:29:54;2.80;;;1.17;;
18290;SDS011;9271;48.590;8.866;2023-04-24T01:32:21;0.90;;;0.90;;
18290;SDS011;9271;48.590;8.866;2023-04-24T01:34:48;2.10;;;1.43;;
18290;SDS011;9271;48.590;8.866;2023-04-24T01:37:15;1.63;;;1.00;;
18290;SDS011;9271;48.590;8.866;2023-04-24T01:39:43;1.73;;;1.27;;
18290;SDS011;9271;48.590;8.866;2023-04-24T01:42:09;1.83;;;1.73;;
18290;SDS011;9271;48.590;8.866;2023-04-24T01:44:36;1.77;;;1.60;;
18290;SDS011;9271;48.590;8.866;2023-04-24T01:47:03;3.23;;;1.57;;
18290;SDS011;9271;48.590;8.866;2023-04-24T01:49:31;1.57;;;1.47;;
18290;SDS011;9271;48.590;8.866;2023-04-24T01:51:58;1.10;;;1.10;;
18290;SDS011;9271;48.590;8.866;2023-04-24T01:54:25;1.40;;;1.30;;
18290;SDS011;9271;48.590;8.866;2023-04-24T01:56:53;1.57;;;1.10;;
18290;SDS011;9271;48.590;8.866;2023-04-24T01:59:20;1.33;;;1.07;;
18290;SDS011;9271;48.590;8.866;2023-04-24T02:01:47;1.00;;;1.00;;
18290;SDS011;9271;48.590;8.866;2023-04-24T02:04:14;1.83;;;1.17;;
18290;SDS011;9271;48.590;8.866;2023-04-24T02:06:41;1.33;;;1.00;;
18290;SDS011;9271;48.590;8.866;2023-04-24T02:09:07;1.10;;;1.10;;
18290;SDS011;9271;48.590;8.866;2023-04-24T02:11:35;1.70;;;1.20;;
18290;SDS011;9271;48.590;8.866;2023-04-24T02:14:03;1.40;;;1.30;;
18290;SDS011;9271;48.590;8.866;2023-04-24T02:16:30;2.03;;;1.20;;
18290;SDS011;9271;48.590;8.866;2023-04-24T02:18:57;2.17;;;1.23;;
18290;SDS011;9271;48.590;8.866;2023-04-24T02:21:24;2.03;;;1.40;;
18290;SDS011;9271;48.590;8.866;2023-04-24T02:23:52;1.50;;;1.40;;
18290;SDS011;9271;48.590;8.866;2023-04-24T02:26:19;1.60;;;1.20;;
18290;SDS011;9271;48.590;8.866;2023-04-24T02:28:45;2.13;;;1.30;;
18290;SDS011;9271;48.590;8.866;2023-04-24T02:31:13;1.50;;;1.40;;
18290;SDS011;9271;48.590;8.866;2023-04-24T02:33:40;2.17;;;1.47;;
18290;SDS011;9271;48.590;8.866;2023-04-24T02:36:07;2.60;;;1.80;;
18290;SDS011;9271;48.590;8.866;2023-04-24T02:38:33;1.80;;;1.57;;
18290;SDS011;9271;48.590;8.866;2023-04-24T02:41:00;1.83;;;1.30;;
18290;SDS011;9271;48.590;8.866;2023-04-24T02:43:29;2.33;;;1.57;;
18290;SDS011;9271;48.590;8.866;2023-04-24T02:45:55;3.03;;;1.70;;
18290;SDS011;9271;48.590;8.866;2023-04-24T02:48:23;2.13;;;1.63;;
18290;SDS011;9271;48.590;8.866;2023-04-24T02:50:50;2.03;;;1.83;;
18290;SDS011;9271;48.590;8.866;2023-04-24T02:53:17;2.53;;;1.73;;
18290;SDS011;9271;48.590;8.866;2023-04-24T02:55:43;2.23;;;1.80;;
18290;SDS011;9271;48.590;8.866;2023-04-24T02:58:11;1.60;;;1.50;;
18290;SDS011;9271;48.590;8.866;2023-04-24T03:00:38;2.13;;;1.37;;
18290;SDS011;9271;48.590;8.866;2023-04-24T03:03:05;2.10;;;1.50;;
18290;SDS011;9271;48.590;8.866;2023-04-24T03:05:33;3.20;;;1.40;;
18290;SDS011;9271;48.590;8.866;2023-04-24T03:08:00;2.90;;;1.60;;
18290;SDS011;9271;48.590;8.866;2023-04-24T03:10:26;2.57;;;1.70;;
18290;SDS011;9271;48.590;8.866;2023-04-24T03:12:53;1.77;;;1.50;;
18290;SDS011;9271;48.590;8.866;2023-04-24T03:15:20;1.70;;;1.40;;
18290;SDS011;9271;48.590;8.866;2023-04-24T03:17:47;2.77;;;1.43;;
18290;SDS011;9271;48.590;8.866;2023-04-24T03:20:14;2.20;;;1.67;;
18290;SDS011;9271;48.590;8.866;2023-04-24T03:22:42;2.70;;;1.97;;
18290;SDS011;9271;48.590;8.866;2023-04-24T03:25:09;2.00;;;1.90;;
18290;SDS011;9271;48.590;8.866;2023-04-24T03:27:35;2.70;;;1.70;;
18290;SDS011;9271;48.590;8.866;2023-04-24T03:30:02;2.30;;;1.67;;
18290;SDS011;9271;48.590;8.866;2023-04-24T03:32:29;1.93;;;1.83;;
18290;SDS011;9271;48.590;8.866;2023-04-24T03:34:57;1.77;;;1.67;;
18290;SDS011;9271;48.590;8.866;2023-04-24T03:37:23;4.80;;;1.67;;
18290;SDS011;9271;48.590;8.866;2023-04-24T03:39:52;1.80;;;1.70;;
18290;SDS011;9271;48.590;8.866;2023-04-24T03:42:19;2.13;;;1.90;;
18290;SDS011;9271;48.590;8.866;2023-04-24T03:44:45;3.37;;;2.00;;
18290;SDS011;9271;48.590;8.866;2023-04-24T03:47:12;4.80;;;2.40;;
18290;SDS011;9271;48.590;8.866;2023-04-24T03:49:39;3.40;;;2.50;;
18290;SDS011;9271;48.590;8.866;2023-04-24T03:52:05;2.43;;;1.77;;
18290;SDS011;9271;48.590;8.866;2023-04-24T03:54:32;3.83;;;2.00;;
18290;SDS011;9271;48.590;8.866;2023-04-24T03:57:00;1.90;;;1.70;;
18290;SDS011;9271;48.590;8.866;2023-04-24T03:59:28;2.30;;;1.57;;
18290;SDS011;9271;48.590;8.866;2023-04-24T04:01:55;2.60;;;1.80;;
18290;SDS011;9271;48.590;8.866;2023-04-24T04:04:21;2.50;;;1.70;;
18290;SDS011;9271;48.590;8.866;2023-04-24T04:06:48;3.67;;;1.70;;
18290;SDS011;9271;48.590;8.866;2023-04-24T04:09:15;2.80;;;1.57;;
18290;SDS011;9271;48.590;8.866;2023-04-24T04:11:41;1.60;;;0.93;;
18290;SDS011;9271;48.590;8.866;2023-04-24T04:14:09;1.47;;;1.00;;
18290;SDS011;9271;48.590;8.866;2023-04-24T04:16:36;1.27;;;0.90;;
18290;SDS011;9271;48.590;8.866;2023-04-24T04:19:03;1.00;;;1.00;;
18290;SDS011;9271;48.590;8.866;2023-04-24T04:21:30;1.03;;;0.83;;
18290;SDS011;9271;48.590;8.866;2023-04-24T04:23:57;0.73;;;0.73;;
18290;SDS011;9271;48.590;8.866;2023-04-24T04:26:24;0.90;;;0.77;;
18290;SDS011;9271;48.590;8.866;2023-04-24T04:28:50;0.80;;;0.80;;
18290;SDS011;9271;48.590;8.866;2023-04-24T04:31:18;1.47;;;1.10;;
18290;SDS011;9271;48.590;8.866;2023-04-24T04:33:45;1.03;;;0.90;;
18290;SDS011;9271;48.590;8.866;2023-04-24T04:36:12;0.90;;;0.90;;
18290;SDS011;9271;48.590;8.866;2023-04-24T04:38:39;1.20;;;0.93;;
18290;SDS011;9271;48.590;8.866;2023-04-24T04:41:05;1.00;;;1.00;;
18290;SDS011;9271;48.590;8.866;2023-04-24T04:43:32;2.23;;;1.37;;
18290;SDS011;9271;48.590;8.866;2023-04-24T04:45:59;2.27;;;1.40;;
18290;SDS011;9271;48.590;8.866;2023-04-24T04:48:29;0.90;;;0.90;;
18290;SDS011;9271;48.590;8.866;2023-04-24T04:50:56;1.00;;;0.80;;
18290;SDS011;9271;48.590;8.866;2023-04-24T04:53:23;1.33;;;0.80;;
18290;SDS011;9271;48.590;8.866;2023-04-24T04:55:50;0.70;;;0.70;;
18290;SDS011;9271;48.590;8.866;2023-04-24T04:58:16;0.83;;;0.83;;
18290;SDS011;9271;48.590;8.866;2023-04-24T05:00:43;0.70;;;0.70;;
18290;SDS011;9271;48.590;8.866;2023-04-24T05:03:09;0.90;;;0.90;;
18290;SDS011;9271;48.590;8.866;2023-04-24T05:05:37;1.10;;;1.10;;
18290;SDS011;9271;48.590;8.866;2023-04-24T05:08:05;1.33;;;1.00;;
18290;SDS011;9271;48.590;8.866;2023-04-24T05:10:33;1.03;;;0.90;;
18290;SDS011;9271;48.590;8.866;2023-04-24T05:12:59;1.60;;;1.50;;
18290;SDS011;9271;48.590;8.866;2023-04-24T05:15:26;1.30;;;1.30;;
18290;SDS011;9271;48.590;8.866;2023-04-24T05:17:53;1.30;;;1.30;;
18290;SDS011;9271;48.590;8.866;2023-04-24T05:20:20;1.60;;;1.50;;
18290;SDS011;9271;48.590;8.866;2023-04-24T05:22:48;2.13;;;1.37;;
18290;SDS011;9271;48.590;8.866;2023-04-24T05:25:14;1.23;;;1.13;;
18290;SDS011;9271;48.590;8.866;2023-04-24T05:27:41;1.20;;;1.20;;
18290;SDS011;9271;48.590;8.866;2023-04-24T05:30:08;1.80;;;1.30;;
18290;SDS011;9271;48.590;8.866;2023-04-24T05:32:35;1.30;;;1.20;;
18290;SDS011;9271;48.590;8.866;2023-04-24T05:35:02;1.30;;;1.30;;
18290;SDS011;9271;48.590;8.866;2023-04-24T05:37:29;1.50;;;1.33;;
18290;SDS011;9271;48.590;8.866;2023-04-24T05:39:57;1.93;;;1.77;;
18290;SDS011;9271;48.590;8.866;2023-04-24T05:42:23;1.63;;;1.60;;
18290;SDS011;9271;48.590;8.866;2023-04-24T05:44:50;1.40;;;1.40;;
18290;SDS011;9271;48.590;8.866;2023-04-24T05:47:19;2.03;;;1.80;;
18290;SDS011;9271;48.590;8.866;2023-04-24T05:49:46;1.90;;;1.70;;
18290;SDS011;9271;48.590;8.866;2023-04-24T05:52:13;2.13;;;1.93;;
18290;SDS011;9271;48.590;8.866;2023-04-24T05:54:40;1.60;;;1.57;;
18290;SDS011;9271;48.590;8.866;2023-04-24T05:57:08;2.43;;;2.23;;
18290;SDS011;9271;48.590;8.866;2023-04-24T05:59:36;3.33;;;2.20;;
18290;SDS011;9271;48.590;8.866;2023-04-24T06:02:03;2.20;;;2.00;;
18290;SDS011;9271;48.590;8.866;2023-04-24T06:04:30;1.90;;;1.80;;
18290;SDS011;9271;48.590;8.866;2023-04-24T06:06:57;1.90;;;1.80;;
18290;SDS011;9271;48.590;8.866;2023-04-24T06:09:24;1.57;;;1.47;;
18290;SDS011;9271;48.590;8.866;2023-04-24T06:11:51;1.60;;;1.50;;
18290;SDS011;9271;48.590;8.866;2023-04-24T06:14:19;3.00;;;1.63;;
18290;SDS011;9271;48.590;8.866;2023-04-24T06:16:46;2.90;;;1.90;;
18290;SDS011;9271;48.590;8.866;2023-04-24T06:19:13;1.90;;;1.57;;
18290;SDS011;9271;48.590;8.866;2023-04-24T06:21:39;3.20;;;1.67;;
18290;SDS011;9271;48.590;8.866;2023-04-24T06:24:06;2.23;;;1.47;;
18290;SDS011;9271;48.590;8.866;2023-04-24T06:26:33;1.97;;;1.53;;
18290;SDS011;9271;48.590;8.866;2023-04-24T06:28:59;1.50;;;1.40;;
18290;SDS011;9271;48.590;8.866;2023-04-24T06:31:27;1.67;;;1.57;;
18290;SDS011;9271;48.590;8.866;2023-04-24T06:33:54;1.80;;;1.70;;
18290;SDS011;9271;48.590;8.866;2023-04-24T06:36:21;2.43;;;1.73;;
18290;SDS011;9271;48.590;8.866;2023-04-24T06:38:47;1.73;;;1.63;;
18290;SDS011;9271;48.590;8.866;2023-04-24T06:41:14;1.33;;;1.20;;
18290;SDS011;9271;48.590;8.866;2023-04-24T06:43:41;1.27;;;1.20;;
18290;SDS011;9271;48.590;8.866;2023-04-24T06:46:07;2.03;;;1.20;;
18290;SDS011;9271;48.590;8.866;2023-04-24T06:48:35;2.40;;;1.30;;
18290;SDS011;9271;48.590;8.866;2023-04-24T06:51:02;1.60;;;1.50;;
18290;SDS011;9271;48.590;8.866;2023-04-24T06:53:29;1.57;;;1.47;;
18290;SDS011;9271;48.590;8.866;2023-04-24T06:55:55;1.60;;;1.50;;
18290;SDS011;9271;48.590;8.866;2023-04-24T06:58:22;2.60;;;1.33;;
18290;SDS011;9271;48.590;8.866;2023-04-24T07:00:50;1.33;;;1.20;;
18290;SDS011;9271;48.590;8.866;2023-04-24T07:03:16;1.13;;;1.13;;
18290;SDS011;9271;48.590;8.866;2023-04-24T07:05:44;1.10;;;1.10;;
18290;SDS011;9271;48.590;8.866;2023-04-24T07:08:11;0.90;;;0.90;;
18290;SDS011;9271;48.590;8.866;2023-04-24T07:10:38;0.80;;;0.80;;
18290;SDS011;9271;48.590;8.866;2023-04-24T07:13:05;0.90;;;0.90;;
18290;SDS011;9271;48.590;8.866;2023-04-24T07:15:32;0.67;;;0.67;;
18290;SDS011;9271;48.590;8.866;2023-04-24T07:17:59;1.10;;;1.00;;
18290;SDS011;9271;48.590;8.866;2023-04-24T07:20:25;0.83;;;0.80;;
18290;SDS011;9271;48.590;8.866;2023-04-24T07:22:53;0.87;;;0.87;;
18290;SDS011;9271;48.590;8.866;2023-04-24T07:25:20;1.33;;;1.00;;
18290;SDS011;9271;48.590;8.866;2023-04-24T07:27:47;0.93;;;0.87;;
18290;SDS011;9271;48.590;8.866;2023-04-24T07:30:14;1.10;;;1.10;;
18290;SDS011;9271;48.590;8.866;2023-04-24T07:32:40;0.93;;;0.93;;
18290;SDS011;9271;48.590;8.866;2023-04-24T07:35:07;0.90;;;0.90;;
18290;SDS011;9271;48.590;8.866;2023-04-24T07:37:35;1.50;;;1.00;;
18290;SDS011;9271;48.590;8.866;2023-04-24T07:40:03;1.10;;;1.00;;
18290;SDS011;9271;48.590;8.866;2023-04-24T07:42:30;1.50;;;1.00;;
18290;SDS011;9271;48.590;8.866;2023-04-24T07:44:59;1.17;;;1.10;;
18290;SDS011;9271;48.590;8.866;2023-04-24T07:47:26;2.47;;;1.30;;
18290;SDS011;9271;48.590;8.866;2023-04-24T07:49:52;1.20;;;1.10;;
18290;SDS011;9271;48.590;8.866;2023-04-24T07:52:19;2.03;;;1.20;;
18290;SDS011;9271;48.590;8.866;2023-04-24T07:54:45;1.60;;;1.20;;
18290;SDS011;9271;48.590;8.866;2023-04-24T07:57:13;1.40;;;1.30;;
18290;SDS011;9271;48.590;8.866;2023-04-24T07:59:40;1.20;;;1.20;;
18290;SDS011;9271;48.590;8.866;2023-04-24T08:02:07;1.07;;;1.07;;
18290;SDS011;9271;48.590;8.866;2023-04-24T08:04:34;1.20;;;1.20;;
18290;SDS011;9271;48.590;8.866;2023-04-24T08:07:01;1.70;;;1.20;;
18290;SDS011;9271;48.590;8.866;2023-04-24T08:09:27;1.20;;;1.20;;
18290;SDS011;9271;48.590;8.866;2023-04-24T08:11:54;1.30;;;1.20;;
18290;SDS011;9271;48.590;8.866;2023-04-24T08:14:22;2.70;;;1.60;;
18290;SDS011;9271;48.590;8.866;2023-04-24T08:16:49;1.80;;;1.37;;
18290;SDS011;9271;48.590;8.866;2023-04-24T08:19:16;1.17;;;1.17;;
18290;SDS011;9271;48.590;8.866;2023-04-24T08:21:42;2.40;;;1.40;;
18290;SDS011;9271;48.590;8.866;2023-04-24T08:24:09;2.77;;;1.40;;
18290;SDS011;9271;48.590;8.866;2023-04-24T08:26:36;2.30;;;1.30;;
18290;SDS011;9271;48.590;8.866;2023-04-24T08:29:02;2.17;;;1.40;;
18290;SDS011;9271;48.590;8.866;2023-04-24T08:31:30;5.83;;;1.40;;
18290;SDS011;9271;48.590;8.866;2023-04-24T08:33:57;2.10;;;1.60;;
18290;SDS011;9271;48.590;8.866;2023-04-24T08:36:24;1.40;;;1.30;;
18290;SDS011;9271;48.590;8.866;2023-04-24T08:38:51;1.73;;;1.30;;
18290;SDS011;9271;48.590;8.866;2023-04-24T08:41:18;1.80;;;1.50;;
18290;SDS011;9271;48.590;8.866;2023-04-24T08:43:46;2.17;;;1.20;;
18290;SDS011;9271;48.590;8.866;2023-04-24T08:46:13;2.07;;;1.43;;
18290;SDS011;9271;48.590;8.866;2023-04-24T08:48:42;2.00;;;1.43;;
18290;SDS011;9271;48.590;8.866;2023-04-24T08:51:10;1.27;;;1.17;;
18290;SDS011;9271;48.590;8.866;2023-04-24T08:53:37;2.63;;;1.40;;
18290;SDS011;9271;48.590;8.866;2023-04-24T08:56:07;2.10;;;1.30;;
18290;SDS011;9271;48.590;8.866;2023-04-24T08:58:38;1.20;;;1.20;;
18290;SDS011;9271;48.590;8.866;2023-04-24T09:01:05;2.83;;;1.60;;
18290;SDS011;9271;48.590;8.866;2023-04-24T09:03:32;1.30;;;1.20;;
18290;SDS011;9271;48.590;8.866;2023-04-24T09:06:01;1.07;;;1.07;;
18290;SDS011;9271;48.590;8.866;2023-04-24T09:08:30;1.87;;;1.20;;
18290;SDS011;9271;48.590;8.866;2023-04-24T09:10:57;2.40;;;1.70;;
18290;SDS011;9271;48.590;8.866;2023-04-24T09:13:26;1.20;;;1.10;;
18290;SDS011;9271;48.590;8.866;2023-04-24T09:15:53;1.47;;;1.30;;
18290;SDS011;9271;48.590;8.866;2023-04-24T09:18:22;1.70;;;1.30;;
18290;SDS011;9271;48.590;8.866;2023-04-24T09:20:58;1.13;;;1.10;;
18290;SDS011;9271;48.590;8.866;2023-04-24T09:23:28;1.43;;;1.20;;
18290;SDS011;9271;48.590;8.866;2023-04-24T09:25:55;1.60;;;1.30;;
18290;SDS011;9271;48.590;8.866;2023-04-24T09:28:25;1.40;;;1.30;;
18290;SDS011;9271;48.590;8.866;2023-04-24T09:31:01;2.20;;;1.23;;
18290;SDS011;9271;48.590;8.866;2023-04-24T09:33:29;4.17;;;1.10;;
18290;SDS011;9271;48.590;8.866;2023-04-24T09:35:56;1.23;;;1.20;;
18290;SDS011;9271;48.590;8.866;2023-04-24T09:38:31;1.50;;;1.17;;
18290;SDS011;9271;48.590;8.866;2023-04-24T09:41:00;1.20;;;1.10;;
18290;SDS011;9271;48.590;8.866;2023-04-24T09:43:28;1.20;;;1.20;;
18290;SDS011;9271;48.590;8.866;2023-04-24T09:45:55;0.93;;;0.93;;
18290;SDS011;9271;48.590;8.866;2023-04-24T09:48:29;1.10;;;1.00;;
18290;SDS011;9271;48.590;8.866;2023-04-24T09:50:56;1.10;;;1.10;;
18290;SDS011;9271;48.590;8.866;2023-04-24T09:53:24;1.23;;;1.00;;
18290;SDS011;9271;48.590;8.866;2023-04-24T09:55:52;1.27;;;1.23;;
18290;SDS011;9271;48.590;8.866;2023-04-24T09:58:24;1.27;;;1.10;;
18290;SDS011;9271;48.590;8.866;2023-04-24T10:00:53;1.50;;;1.40;;
18290;SDS011;9271;48.590;8.866;2023-04-24T10:03:20;0.90;;;0.90;;
18290;SDS011;9271;48.590;8.866;2023-04-24T10:05:47;1.83;;;1.30;;
18290;SDS011;9271;48.590;8.866;2023-04-24T10:08:13;1.10;;;1.07;;
18290;SDS011;9271;48.590;8.866;2023-04-24T10:10:41;1.20;;;1.10;;
18290;SDS011;9271;48.590;8.866;2023-04-24T10:13:10;1.13;;;1.13;;
18290;SDS011;9271;48.590;8.866;2023-04-24T10:15:37;1.40;;;1.30;;
18290;SDS011;9271;48.590;8.866;2023-04-24T10:18:05;1.23;;;1.13;;
18290;SDS011;9271;48.590;8.866;2023-04-24T10:20:33;1.00;;;0.90;;
18290;SDS011;9271;48.590;8.866;2023-04-24T10:23:01;1.30;;;1.20;;
18290;SDS011;9271;48.590;8.866;2023-04-24T10:25:28;1.17;;;1.07;;
18290;SDS011;9271;48.590;8.866;2023-04-24T10:27:56;3.00;;;1.20;;
18290;SDS011;9271;48.590;8.866;2023-04-24T10:30:26;3.33;;;1.50;;
18290;SDS011;9271;48.590;8.866;2023-04-24T10:32:54;1.57;;;0.97;;
18290;SDS011;9271;48.590;8.866;2023-04-24T10:35:21;1.13;;;1.13;;
18290;SDS011;9271;48.590;8.866;2023-04-24T10:37:54;2.83;;;1.10;;
18290;SDS011;9271;48.590;8.866;2023-04-24T10:40:25;2.00;;;1.13;;
18290;SDS011;9271;48.590;8.866;2023-04-24T10:42:53;1.27;;;1.20;;
18290;SDS011;9271;48.590;8.866;2023-04-24T10:45:20;1.30;;;1.20;;
18290;SDS011;9271;48.590;8.866;2023-04-24T10:47:54;1.30;;;1.00;;
18290;SDS011;9271;48.590;8.866;2023-04-24T10:50:25;1.60;;;1.20;;
18290;SDS011;9271;48.590;8.866;2023-04-24T10:52:55;1.23;;;1.07;;
18290;SDS011;9271;48.590;8.866;2023-04-24T10:55:42;1.77;;;1.50;;
18290;SDS011;9271;48.590;8.866;2023-04-24T10:58:10;1.43;;;1.27;;
18290;SDS011;9271;48.590;8.866;2023-04-24T11:00:37;1.37;;;1.30;;
18290;SDS011;9271;48.590;8.866;2023-04-24T11:03:06;1.80;;;1.10;;
18290;SDS011;9271;48.590;8.866;2023-04-24T11:05:55;1.20;;;1.10;;
18290;SDS011;9271;48.590;8.866;2023-04-24T11:08:24;1.10;;;1.10;;
18290;SDS011;9271;48.590;8.866;2023-04-24T11:10:56;0.93;;;0.90;;
18290;SDS011;9271;48.590;8.866;2023-04-24T11:13:24;1.70;;;1.60;;
18290;SDS011;9271;48.590;8.866;2023-04-24T11:16:12;1.23;;;1.00;;
18290;SDS011;9271;48.590;8.866;2023-04-24T11:18:42;0.60;;;0.60;;
18290;SDS011;9271;48.590;8.866;2023-04-24T11:21:16;1.27;;;1.00;;
18290;SDS011;9271;48.590;8.866;2023-04-24T11:23:44;0.90;;;0.90;;
18290;SDS011;9271;48.590;8.866;2023-04-24T11:26:11;2.23;;;1.13;;
18290;SDS011;9271;48.590;8.866;2023-04-24T11:28:43;1.50;;;0.90;;
18290;SDS011;9271;48.590;8.866;2023-04-24T11:34:06;1.00;;;1.00;;
18290;SDS011;9271;48.590;8.866;2023-04-24T11:36:34;1.20;;;1.10;;
18290;SDS011;9271;48.590;8.866;2023-04-24T11:39:01;1.00;;;1.00;;
18290;SDS011;9271;48.590;8.866;2023-04-24T11:41:28;1.83;;;1.00;;
18290;SDS011;9271;48.590;8.866;2023-04-24T11:43:55;2.07;;;1.13;;
18290;SDS011;9271;48.590;8.866;2023-04-24T11:46:23;1.50;;;1.30;;
18290;SDS011;9271;48.590;8.866;2023-04-24T11:48:53;1.07;;;1.07;;
18290;SDS011;9271;48.590;8.866;2023-04-24T11:51:21;1.10;;;1.10;;
18290;SDS011;9271;48.590;8.866;2023-04-24T11:53:48;0.90;;;0.90;;
18290;SDS011;9271;48.590;8.866;2023-04-24T11:56:17;2.10;;;1.10;;
18290;SDS011;9271;48.590;8.866;2023-04-24T11:58:44;5.83;;;1.50;;
18290;SDS011;9271;48.590;8.866;2023-04-24T12:01:11;1.60;;;1.17;;
18290;SDS011;9271;48.590;8.866;2023-04-24T12:03:38;4.73;;;1.30;;
18290;SDS011;9271;48.590;8.866;2023-04-24T12:06:08;1.00;;;1.00;;
18290;SDS011;9271;48.590;8.866;2023-04-24T12:08:38;1.83;;;1.27;;
18290;SDS011;9271;48.590;8.866;2023-04-24T12:11:05;1.57;;;1.17;;
18290;SDS011;9271;48.590;8.866;2023-04-24T12:13:33;1.57;;;1.20;;
18290;SDS011;9271;48.590;8.866;2023-04-24T12:16:01;2.40;;;1.10;;
18290;SDS011;9271;48.590;8.866;2023-04-24T12:18:29;1.20;;;1.10;;
18290;SDS011;9271;48.590;8.866;2023-04-24T12:21:01;1.30;;;1.20;;
18290;SDS011;9271;48.590;8.866;2023-04-24T12:23:43;1.47;;;1.20;;
18290;SDS011;9271;48.590;8.866;2023-04-24T12:26:11;1.30;;;1.20;;
18290;SDS011;9271;48.590;8.866;2023-04-24T12:28:38;1.30;;;1.20;;
18290;SDS011;9271;48.590;8.866;2023-04-24T12:31:05;4.50;;;1.40;;
18290;SDS011;9271;48.590;8.866;2023-04-24T12:33:34;1.43;;;1.33;;
18290;SDS011;9271;48.590;8.866;2023-04-24T12:36:01;1.10;;;1.00;;
18290;SDS011;9271;48.590;8.866;2023-04-24T12:38:30;1.43;;;1.30;;
18290;SDS011;9271;48.590;8.866;2023-04-24T12:41:06;1.03;;;1.00;;
18290;SDS011;9271;48.590;8.866;2023-04-24T12:43:34;1.67;;;1.57;;
18290;SDS011;9271;48.590;8.866;2023-04-24T12:46:02;1.47;;;1.37;;
18290;SDS011;9271;48.590;8.866;2023-04-24T12:48:29;1.30;;;1.30;;
18290;SDS011;9271;48.590;8.866;2023-04-24T12:50:57;2.10;;;1.50;;
18290;SDS011;9271;48.590;8.866;2023-04-24T12:53:26;4.23;;;1.80;;
18290;SDS011;9271;48.590;8.866;2023-04-24T12:55:54;2.90;;;1.67;;
18290;SDS011;9271;48.590;8.866;2023-04-24T12:58:22;1.60;;;1.50;;
18290;SDS011;9271;48.590;8.866;2023-04-24T13:00:49;1.63;;;1.53;;
18290;SDS011;9271;48.590;8.866;2023-04-24T13:03:16;1.77;;;1.67;;
18290;SDS011;9271;48.590;8.866;2023-04-24T13:05:43;2.97;;;1.37;;
18290;SDS011;9271;48.590;8.866;2023-04-24T13:08:10;1.97;;;1.43;;
18290;SDS011;9271;48.590;8.866;2023-04-24T13:10:38;1.50;;;1.40;;
18290;SDS011;9271;48.590;8.866;2023-04-24T13:13:05;1.60;;;1.50;;
18290;SDS011;9271;48.590;8.866;2023-04-24T13:15:33;1.70;;;1.60;;
18290;SDS011;9271;48.590;8.866;2023-04-24T13:18:00;5.57;;;1.60;;
18290;SDS011;9271;48.590;8.866;2023-04-24T13:20:27;1.23;;;1.13;;
18290;SDS011;9271;48.590;8.866;2023-04-24T13:22:54;2.20;;;2.00;;
18290;SDS011;9271;48.590;8.866;2023-04-24T13:25:20;1.60;;;1.50;;
18290;SDS011;9271;48.590;8.866;2023-04-24T13:27:48;2.67;;;1.50;;
18290;SDS011;9271;48.590;8.866;2023-04-24T13:30:15;1.70;;;1.47;;
18290;SDS011;9271;48.590;8.866;2023-04-24T13:32:43;1.80;;;1.70;;
18290;SDS011;9271;48.590;8.866;2023-04-24T13:35:10;5.00;;;1.53;;
18290;SDS011;9271;48.590;8.866;2023-04-24T13:37:37;2.53;;;1.63;;
18290;SDS011;9271;48.590;8.866;2023-04-24T13:40:04;6.60;;;1.50;;
18290;SDS011;9271;48.590;8.866;2023-04-24T13:42:32;1.43;;;1.40;;
18290;SDS011;9271;48.590;8.866;2023-04-24T13:44:59;1.57;;;1.47;;
18290;SDS011;9271;48.590;8.866;2023-04-24T13:47:26;1.33;;;1.33;;
18290;SDS011;9271;48.590;8.866;2023-04-24T13:49:54;2.70;;;1.40;;
18290;SDS011;9271;48.590;8.866;2023-04-24T13:52:20;1.80;;;1.70;;
18290;SDS011;9271;48.590;8.866;2023-04-24T13:54:47;1.50;;;1.40;;
18290;SDS011;9271;48.590;8.866;2023-04-24T13:57:14;1.77;;;1.30;;
18290;SDS011;9271;48.590;8.866;2023-04-24T13:59:41;1.67;;;1.57;;
18290;SDS011;9271;48.590;8.866;2023-04-24T14:02:08;1.70;;;1.60;;
18290;SDS011;9271;48.590;8.866;2023-04-24T14:04:35;1.50;;;1.40;;
18290;SDS011;9271;48.590;8.866;2023-04-24T14:07:03;2.57;;;1.60;;
18290;SDS011;9271;48.590;8.866;2023-04-24T14:09:30;1.40;;;1.30;;
18290;SDS011;9271;48.590;8.866;2023-04-24T14:11:57;2.20;;;1.53;;
18290;SDS011;9271;48.590;8.866;2023-04-24T14:14:27;1.40;;;1.30;;
18290;SDS011;9271;48.590;8.866;2023-04-24T14:16:54;1.53;;;1.43;;
18290;SDS011;9271;48.590;8.866;2023-04-24T14:19:21;2.10;;;1.57;;
18290;SDS011;9271;48.590;8.866;2023-04-24T14:21:48;1.30;;;1.20;;
18290;SDS011;9271;48.590;8.866;2023-04-24T14:24:17;1.40;;;1.30;;
18290;SDS011;9271;48.590;8.866;2023-04-24T14:26:44;2.20;;;1.60;;
18290;SDS011;9271;48.590;8.866;2023-04-24T14:29:11;3.50;;;1.40;;
18290;SDS011;9271;48.590;8.866;2023-04-24T14:31:38;1.33;;;1.23;;
18290;SDS011;9271;48.590;8.866;2023-04-24T14:34:04;4.73;;;1.30;;
18290;SDS011;9271;48.590;8.866;2023-04-24T14:36:31;1.73;;;1.40;;
18290;SDS011;9271;48.590;8.866;2023-04-24T14:38:58;1.67;;;1.40;;
18290;SDS011;9271;48.590;8.866;2023-04-24T14:41:26;1.50;;;1.30;;
18290;SDS011;9271;48.590;8.866;2023-04-24T14:43:53;1.97;;;1.60;;
18290;SDS011;9271;48.590;8.866;2023-04-24T14:46:19;2.63;;;1.23;;
18290;SDS011;9271;48.590;8.866;2023-04-24T14:48:46;1.63;;;1.40;;
18290;SDS011;9271;48.590;8.866;2023-04-24T14:51:13;1.40;;;1.30;;
18290;SDS011;9271;48.590;8.866;2023-04-24T14:53:40;3.83;;;1.50;;
18290;SDS011;9271;48.590;8.866;2023-04-24T14:56:07;1.57;;;1.47;;
18290;SDS011;9271;48.590;8.866;2023-04-24T14:58:35;2.03;;;1.40;;
18290;SDS011;9271;48.590;8.866;2023-04-24T15:01:02;1.10;;;1.10;;
18290;SDS011;9271;48.590;8.866;2023-04-24T15:03:29;2.27;;;1.50;;
18290;SDS011;9271;48.590;8.866;2023-04-24T15:05:56;1.77;;;1.67;;